sensor_id;sensor_type;location;lat;lon;timestamp;pressure;altitude;pressure_sealevel;temperature;humidity
72585;BME280;73873;40.084;32.908;2023-12-04T00:00:53;89800.22;;;7.85;82.61
72585;BME280;73873;40.084;32.908;2023-12-04T00:03:20;89798.75;;;7.84;82.45
72585;BME280;73873;40.084;32.908;2023-12-04T00:05:47;89802.16;;;7.75;83.12
72585;BME280;73873;40.084;32.908;2023-12-04T00:08:14;89804.06;;;7.84;82.71
72585;BME280;73873;40.084;32.908;2023-12-04T00:10:41;89806.84;;;7.89;81.96
72585;BME280;73873;40.084;32.908;2023-12-04T00:13:08;89807.25;;;7.97;81.85
72585;BME280;73873;40.084;32.908;2023-12-04T00:15:34;89807.56;;;7.90;82.22
72585;BME280;73873;40.084;32.908;2023-12-04T00:18:02;89812.91;;;7.81;81.93
72585;BME280;73873;40.084;32.908;2023-12-04T00:20:29;89813.81;;;7.68;82.94
72585;BME280;73873;40.084;32.908;2023-12-04T00:22:56;89804.81;;;7.75;82.32
72585;BME280;73873;40.084;32.908;2023-12-04T00:25:23;89808.94;;;7.76;82.22
72585;BME280;73873;40.084;32.908;2023-12-04T00:27:50;89798.63;;;7.78;82.38
72585;BME280;73873;40.084;32.908;2023-12-04T00:30:17;89799.53;;;7.75;82.53
72585;BME280;73873;40.084;32.908;2023-12-04T00:32:44;89801.91;;;7.55;84.10
72585;BME280;73873;40.084;32.908;2023-12-04T00:35:11;89798.97;;;7.44;85.14
72585;BME280;73873;40.084;32.908;2023-12-04T00:37:38;89805.75;;;7.45;84.45
72585;BME280;73873;40.084;32.908;2023-12-04T00:40:06;89799.41;;;7.51;83.64
72585;BME280;73873;40.084;32.908;2023-12-04T00:42:33;89785.56;;;7.56;83.30
72585;BME280;73873;40.084;32.908;2023-12-04T00:45:01;89783.03;;;7.62;83.14
72585;BME280;73873;40.084;32.908;2023-12-04T00:47:28;89782.59;;;7.63;82.91
72585;BME280;73873;40.084;32.908;2023-12-04T00:49:55;89782.91;;;7.65;82.90
72585;BME280;73873;40.084;32.908;2023-12-04T00:52:22;89776.19;;;7.46;84.66
72585;BME280;73873;40.084;32.908;2023-12-04T00:54:49;89784.91;;;7.19;86.27
72585;BME280;73873;40.084;32.908;2023-12-04T00:57:16;89786.66;;;7.04;87.46
72585;BME280;73873;40.084;32.908;2023-12-04T00:59:43;89789.31;;;7.04;87.30
72585;BME280;73873;40.084;32.908;2023-12-04T01:02:10;89775.03;;;7.20;85.52
72585;BME280;73873;40.084;32.908;2023-12-04T01:04:40;89771.78;;;7.25;84.95
72585;BME280;73873;40.084;32.908;2023-12-04T01:07:07;89775.03;;;7.20;85.11
72585;BME280;73873;40.084;32.908;2023-12-04T01:09:35;89767.53;;;7.09;85.35
72585;BME280;73873;40.084;32.908;2023-12-04T01:12:02;89772.09;;;6.81;88.40
72585;BME280;73873;40.084;32.908;2023-12-04T01:14:30;89772.53;;;6.89;87.40
72585;BME280;73873;40.084;32.908;2023-12-04T01:16:57;89774.16;;;7.04;85.63
72585;BME280;73873;40.084;32.908;2023-12-04T01:19:24;89767.66;;;7.15;85.20
72585;BME280;73873;40.084;32.908;2023-12-04T01:21:51;89769.44;;;7.18;84.64
72585;BME280;73873;40.084;32.908;2023-12-04T01:24:18;89768.25;;;7.19;84.51
72585;BME280;73873;40.084;32.908;2023-12-04T01:26:45;89769.00;;;7.28;84.25
72585;BME280;73873;40.084;32.908;2023-12-04T01:29:12;89761.06;;;7.19;84.45
72585;BME280;73873;40.084;32.908;2023-12-04T01:31:39;89760.44;;;7.24;84.64
72585;BME280;73873;40.084;32.908;2023-12-04T01:34:06;89761.47;;;7.27;84.26
72585;BME280;73873;40.084;32.908;2023-12-04T01:36:33;89752.66;;;7.30;84.15
72585;BME280;73873;40.084;32.908;2023-12-04T01:39:00;89758.53;;;7.34;84.57
72585;BME280;73873;40.084;32.908;2023-12-04T01:41:26;89756.78;;;7.22;84.78
72585;BME280;73873;40.084;32.908;2023-12-04T01:43:53;89756.50;;;7.20;84.87
72585;BME280;73873;40.084;32.908;2023-12-04T01:46:20;89751.19;;;7.20;85.20
72585;BME280;73873;40.084;32.908;2023-12-04T01:48:49;89746.75;;;7.26;84.68
72585;BME280;73873;40.084;32.908;2023-12-04T01:51:17;89748.38;;;7.32;84.18
72585;BME280;73873;40.084;32.908;2023-12-04T01:53:44;89753.50;;;7.36;83.92
72585;BME280;73873;40.084;32.908;2023-12-04T01:56:12;89757.66;;;7.37;84.06
72585;BME280;73873;40.084;32.908;2023-12-04T01:58:40;89753.50;;;7.36;83.91
72585;BME280;73873;40.084;32.908;2023-12-04T02:01:07;89757.66;;;7.19;85.03
72585;BME280;73873;40.084;32.908;2023-12-04T02:03:35;89756.19;;;6.99;86.64
72585;BME280;73873;40.084;32.908;2023-12-04T02:06:03;89756.34;;;6.77;88.14
72585;BME280;73873;40.084;32.908;2023-12-04T02:08:30;89759.72;;;6.60;89.64
72585;BME280;73873;40.084;32.908;2023-12-04T02:10:59;89747.66;;;6.40;91.67
72585;BME280;73873;40.084;32.908;2023-12-04T02:13:26;89752.66;;;6.38;91.59
72585;BME280;73873;40.084;32.908;2023-12-04T02:15:54;89762.66;;;6.52;90.00
72585;BME280;73873;40.084;32.908;2023-12-04T02:18:21;89759.00;;;6.68;88.52
72585;BME280;73873;40.084;32.908;2023-12-04T02:20:49;89756.19;;;6.81;87.79
72585;BME280;73873;40.084;32.908;2023-12-04T02:23:16;89751.22;;;6.83;87.33
72585;BME280;73873;40.084;32.908;2023-12-04T02:25:43;89749.00;;;6.91;86.46
72585;BME280;73873;40.084;32.908;2023-12-04T02:28:13;89744.13;;;6.98;85.87
72585;BME280;73873;40.084;32.908;2023-12-04T02:30:43;89741.78;;;7.00;85.67
72585;BME280;73873;40.084;32.908;2023-12-04T02:33:11;89745.47;;;7.03;85.49
72585;BME280;73873;40.084;32.908;2023-12-04T02:35:41;89747.50;;;7.08;85.67
72585;BME280;73873;40.084;32.908;2023-12-04T02:38:09;89748.41;;;6.96;86.04
72585;BME280;73873;40.084;32.908;2023-12-04T02:40:36;89746.66;;;6.93;86.22
72585;BME280;73873;40.084;32.908;2023-12-04T02:43:04;89748.25;;;6.90;86.74
72585;BME280;73873;40.084;32.908;2023-12-04T02:45:31;89750.63;;;6.97;85.90
72585;BME280;73873;40.084;32.908;2023-12-04T02:47:58;89758.28;;;6.86;86.30
72585;BME280;73873;40.084;32.908;2023-12-04T02:50:25;89749.44;;;6.80;85.89
72585;BME280;73873;40.084;32.908;2023-12-04T02:52:52;89751.50;;;6.76;85.65
72585;BME280;73873;40.084;32.908;2023-12-04T02:55:19;89754.44;;;6.69;86.55
72585;BME280;73873;40.084;32.908;2023-12-04T02:57:45;89750.16;;;6.62;86.28
72585;BME280;73873;40.084;32.908;2023-12-04T03:00:13;89735.63;;;6.76;85.82
72585;BME280;73873;40.084;32.908;2023-12-04T03:02:40;89738.84;;;6.80;85.64
72585;BME280;73873;40.084;32.908;2023-12-04T03:05:07;89740.91;;;6.85;85.60
72585;BME280;73873;40.084;32.908;2023-12-04T03:07:34;89743.69;;;6.72;86.86
72585;BME280;73873;40.084;32.908;2023-12-04T03:10:01;89745.63;;;6.72;86.37
72585;BME280;73873;40.084;32.908;2023-12-04T03:12:28;89748.88;;;6.76;86.68
72585;BME280;73873;40.084;32.908;2023-12-04T03:14:55;89749.44;;;6.71;86.61
72585;BME280;73873;40.084;32.908;2023-12-04T03:17:22;89748.88;;;6.76;86.51
72585;BME280;73873;40.084;32.908;2023-12-04T03:19:49;89757.09;;;6.78;86.38
72585;BME280;73873;40.084;32.908;2023-12-04T03:22:17;89752.81;;;6.71;86.96
72585;BME280;73873;40.084;32.908;2023-12-04T03:24:44;89758.84;;;6.72;86.77
72585;BME280;73873;40.084;32.908;2023-12-04T03:27:11;89757.38;;;6.52;88.92
72585;BME280;73873;40.084;32.908;2023-12-04T03:29:38;89754.66;;;6.16;90.92
72585;BME280;73873;40.084;32.908;2023-12-04T03:32:05;89757.38;;;5.63;93.07
72585;BME280;73873;40.084;32.908;2023-12-04T03:34:32;89756.06;;;5.36;94.75
72585;BME280;73873;40.084;32.908;2023-12-04T03:36:59;89766.34;;;5.34;95.23
72585;BME280;73873;40.084;32.908;2023-12-04T03:39:26;89770.97;;;5.52;94.45
72585;BME280;73873;40.084;32.908;2023-12-04T03:41:53;89767.25;;;5.72;92.19
72585;BME280;73873;40.084;32.908;2023-12-04T03:44:20;89768.94;;;5.87;91.23
72585;BME280;73873;40.084;32.908;2023-12-04T03:46:47;89774.56;;;5.98;89.63
72585;BME280;73873;40.084;32.908;2023-12-04T03:49:14;89765.50;;;6.09;88.61
72585;BME280;73873;40.084;32.908;2023-12-04T03:51:41;89778.91;;;6.14;88.58
72585;BME280;73873;40.084;32.908;2023-12-04T03:54:08;89771.63;;;5.96;90.62
72585;BME280;73873;40.084;32.908;2023-12-04T03:56:35;89776.53;;;5.76;93.83
72585;BME280;73873;40.084;32.908;2023-12-04T03:59:02;89782.88;;;5.57;95.92
72585;BME280;73873;40.084;32.908;2023-12-04T04:01:29;89776.66;;;5.41;96.93
72585;BME280;73873;40.084;32.908;2023-12-04T04:03:56;89782.91;;;5.35;97.27
72585;BME280;73873;40.084;32.908;2023-12-04T04:06:23;89777.88;;;5.28;97.02
72585;BME280;73873;40.084;32.908;2023-12-04T04:08:50;89783.59;;;5.26;96.67
72585;BME280;73873;40.084;32.908;2023-12-04T04:11:16;89783.31;;;5.24;97.73
72585;BME280;73873;40.084;32.908;2023-12-04T04:13:43;89789.28;;;5.47;95.15
72585;BME280;73873;40.084;32.908;2023-12-04T04:16:16;89785.88;;;5.68;93.33
72585;BME280;73873;40.084;32.908;2023-12-04T04:18:43;89782.69;;;5.82;92.36
72585;BME280;73873;40.084;32.908;2023-12-04T04:21:11;89789.97;;;5.91;91.06
72585;BME280;73873;40.084;32.908;2023-12-04T04:23:38;89787.19;;;5.94;91.31
72585;BME280;73873;40.084;32.908;2023-12-04T04:26:05;89788.59;;;5.86;92.36
72585;BME280;73873;40.084;32.908;2023-12-04T04:28:32;89788.56;;;5.77;93.93
72585;BME280;73873;40.084;32.908;2023-12-04T04:30:59;89794.75;;;5.83;93.45
72585;BME280;73873;40.084;32.908;2023-12-04T04:33:26;89808.03;;;5.92;92.46
72585;BME280;73873;40.084;32.908;2023-12-04T04:35:53;89802.75;;;5.92;92.88
72585;BME280;73873;40.084;32.908;2023-12-04T04:38:20;89811.03;;;6.04;91.73
72585;BME280;73873;40.084;32.908;2023-12-04T04:40:46;89801.03;;;6.08;90.87
72585;BME280;73873;40.084;32.908;2023-12-04T04:43:13;89807.97;;;6.14;90.87
72585;BME280;73873;40.084;32.908;2023-12-04T04:45:40;89809.81;;;5.95;91.90
72585;BME280;73873;40.084;32.908;2023-12-04T04:48:07;89805.41;;;6.02;92.00
72585;BME280;73873;40.084;32.908;2023-12-04T04:50:34;89805.13;;;6.00;91.71
72585;BME280;73873;40.084;32.908;2023-12-04T04:53:02;89807.91;;;5.96;91.91
72585;BME280;73873;40.084;32.908;2023-12-04T04:55:28;89815.69;;;6.00;91.96
72585;BME280;73873;40.084;32.908;2023-12-04T04:58:15;89814.41;;;6.04;91.51
72585;BME280;73873;40.084;32.908;2023-12-04T05:00:42;89821.94;;;6.15;91.09
72585;BME280;73873;40.084;32.908;2023-12-04T05:03:09;89821.97;;;6.24;90.38
72585;BME280;73873;40.084;32.908;2023-12-04T05:05:36;89825.22;;;6.37;90.54
72585;BME280;73873;40.084;32.908;2023-12-04T05:08:03;89832.34;;;6.49;91.12
72585;BME280;73873;40.084;32.908;2023-12-04T05:10:30;89830.41;;;6.41;91.29
72585;BME280;73873;40.084;32.908;2023-12-04T05:12:57;89827.31;;;6.42;91.75
72585;BME280;73873;40.084;32.908;2023-12-04T05:15:24;89831.19;;;6.60;91.90
72585;BME280;73873;40.084;32.908;2023-12-04T05:17:51;89826.81;;;6.75;91.57
72585;BME280;73873;40.084;32.908;2023-12-04T05:20:18;89830.66;;;6.92;91.24
72585;BME280;73873;40.084;32.908;2023-12-04T05:22:45;89833.31;;;7.10;91.16
72585;BME280;73873;40.084;32.908;2023-12-04T05:25:12;89838.44;;;7.23;91.02
72585;BME280;73873;40.084;32.908;2023-12-04T05:27:39;89836.97;;;7.40;90.86
72585;BME280;73873;40.084;32.908;2023-12-04T05:30:06;89840.34;;;7.50;90.96
72585;BME280;73873;40.084;32.908;2023-12-04T05:32:33;89841.38;;;7.53;91.42
72585;BME280;73873;40.084;32.908;2023-12-04T05:35:00;89853.16;;;7.33;91.67
72585;BME280;73873;40.084;32.908;2023-12-04T05:37:27;89854.19;;;7.27;92.73
72585;BME280;73873;40.084;32.908;2023-12-04T05:39:54;89858.28;;;7.00;91.72
72585;BME280;73873;40.084;32.908;2023-12-04T05:42:20;89860.19;;;7.00;92.71
72585;BME280;73873;40.084;32.908;2023-12-04T05:44:47;89859.47;;;7.08;93.39
72585;BME280;73873;40.084;32.908;2023-12-04T05:47:14;89861.84;;;7.16;93.82
72585;BME280;73873;40.084;32.908;2023-12-04T05:49:41;89864.66;;;7.39;93.30
72585;BME280;73873;40.084;32.908;2023-12-04T05:52:08;89870.97;;;7.60;93.31
72585;BME280;73873;40.084;32.908;2023-12-04T05:54:35;89872.41;;;7.71;93.31
72585;BME280;73873;40.084;32.908;2023-12-04T05:57:03;89875.97;;;7.67;91.82
72585;BME280;73873;40.084;32.908;2023-12-04T05:59:30;89878.03;;;7.54;90.53
72585;BME280;73873;40.084;32.908;2023-12-04T06:01:56;89881.84;;;7.35;91.65
72585;BME280;73873;40.084;32.908;2023-12-04T06:04:23;89869.03;;;6.97;89.99
72585;BME280;73873;40.084;32.908;2023-12-04T06:06:50;89869.94;;;7.03;90.96
72585;BME280;73873;40.084;32.908;2023-12-04T06:09:17;89875.97;;;7.31;90.50
72585;BME280;73873;40.084;32.908;2023-12-04T06:11:44;89869.50;;;7.41;90.41
72585;BME280;73873;40.084;32.908;2023-12-04T06:14:13;89875.53;;;7.51;89.29
72585;BME280;73873;40.084;32.908;2023-12-04T06:16:40;89876.88;;;7.55;88.90
72585;BME280;73873;40.084;32.908;2023-12-04T06:19:07;89879.06;;;7.57;88.58
72585;BME280;73873;40.084;32.908;2023-12-04T06:21:34;89875.81;;;7.44;89.41
72585;BME280;73873;40.084;32.908;2023-12-04T06:24:01;89871.84;;;7.11;89.48
72585;BME280;73873;40.084;32.908;2023-12-04T06:26:33;89874.91;;;7.01;92.09
72585;BME280;73873;40.084;32.908;2023-12-04T06:29:02;89871.84;;;7.21;91.72
72585;BME280;73873;40.084;32.908;2023-12-04T06:31:29;89873.03;;;7.47;91.10
72585;BME280;73873;40.084;32.908;2023-12-04T06:33:56;89880.38;;;7.71;90.65
72585;BME280;73873;40.084;32.908;2023-12-04T06:36:24;89880.34;;;7.89;89.94
72585;BME280;73873;40.084;32.908;2023-12-04T06:38:51;89874.44;;;8.03;88.52
72585;BME280;73873;40.084;32.908;2023-12-04T06:41:19;89871.59;;;8.16;88.57
72585;BME280;73873;40.084;32.908;2023-12-04T06:43:47;89867.13;;;8.31;88.43
72585;BME280;73873;40.084;32.908;2023-12-04T06:46:19;89878.75;;;8.34;87.04
72585;BME280;73873;40.084;32.908;2023-12-04T06:48:48;89880.84;;;8.30;86.49
72585;BME280;73873;40.084;32.908;2023-12-04T06:51:15;89878.84;;;8.06;86.22
72585;BME280;73873;40.084;32.908;2023-12-04T06:53:42;89879.56;;;8.07;87.84
72585;BME280;73873;40.084;32.908;2023-12-04T06:56:09;89883.56;;;8.11;86.01
72585;BME280;73873;40.084;32.908;2023-12-04T06:58:36;89895.78;;;8.18;86.11
72585;BME280;73873;40.084;32.908;2023-12-04T07:01:03;89895.00;;;8.26;85.54
72585;BME280;73873;40.084;32.908;2023-12-04T07:03:30;89893.13;;;8.00;84.98
72585;BME280;73873;40.084;32.908;2023-12-04T07:05:57;89896.84;;;8.02;86.13
72585;BME280;73873;40.084;32.908;2023-12-04T07:08:25;89891.34;;;8.15;85.37
72585;BME280;73873;40.084;32.908;2023-12-04T07:10:52;89894.53;;;8.46;86.65
72585;BME280;73873;40.084;32.908;2023-12-04T07:13:18;89903.69;;;8.78;85.96
72585;BME280;73873;40.084;32.908;2023-12-04T07:15:46;89903.28;;;9.28;83.17
72585;BME280;73873;40.084;32.908;2023-12-04T07:18:13;89905.63;;;9.74;84.55
72585;BME280;73873;40.084;32.908;2023-12-04T07:20:40;89908.84;;;9.92;79.17
72585;BME280;73873;40.084;32.908;2023-12-04T07:23:06;89912.22;;;9.78;76.94
72585;BME280;73873;40.084;32.908;2023-12-04T07:25:33;89909.94;;;9.71;79.71
72585;BME280;73873;40.084;32.908;2023-12-04T07:28:00;89910.09;;;9.67;78.27
72585;BME280;73873;40.084;32.908;2023-12-04T07:30:27;89914.88;;;9.78;78.39
72585;BME280;73873;40.084;32.908;2023-12-04T07:32:54;89913.13;;;9.75;78.77
72585;BME280;73873;40.084;32.908;2023-12-04T07:35:21;89919.31;;;9.81;79.64
72585;BME280;73873;40.084;32.908;2023-12-04T07:37:48;89910.53;;;9.66;80.09
72585;BME280;73873;40.084;32.908;2023-12-04T07:40:15;89913.53;;;9.59;80.16
72585;BME280;73873;40.084;32.908;2023-12-04T07:42:42;89918.06;;;9.67;80.19
72585;BME280;73873;40.084;32.908;2023-12-04T07:45:10;89924.19;;;9.59;79.63
72585;BME280;73873;40.084;32.908;2023-12-04T07:47:37;89916.06;;;9.62;79.79
72585;BME280;73873;40.084;32.908;2023-12-04T07:50:04;89916.00;;;9.86;80.23
72585;BME280;73873;40.084;32.908;2023-12-04T07:52:32;89914.72;;;9.96;77.84
72585;BME280;73873;40.084;32.908;2023-12-04T07:54:58;89913.47;;;10.07;77.80
72585;BME280;73873;40.084;32.908;2023-12-04T07:57:25;89914.47;;;10.09;77.18
72585;BME280;73873;40.084;32.908;2023-12-04T07:59:52;89908.69;;;10.11;77.79
72585;BME280;73873;40.084;32.908;2023-12-04T08:02:19;89919.47;;;10.31;78.33
72585;BME280;73873;40.084;32.908;2023-12-04T08:04:46;89921.97;;;10.35;77.70
72585;BME280;73873;40.084;32.908;2023-12-04T08:07:13;89917.28;;;10.44;77.05
72585;BME280;73873;40.084;32.908;2023-12-04T08:09:40;89909.63;;;10.08;77.69
72585;BME280;73873;40.084;32.908;2023-12-04T08:12:07;89907.75;;;9.84;79.71
72585;BME280;73873;40.084;32.908;2023-12-04T08:14:34;89902.22;;;9.88;79.03
72585;BME280;73873;40.084;32.908;2023-12-04T08:17:01;89912.19;;;10.17;77.15
72585;BME280;73873;40.084;32.908;2023-12-04T08:19:28;89902.41;;;10.38;77.79
72585;BME280;73873;40.084;32.908;2023-12-04T08:21:55;89897.50;;;10.51;75.95
72585;BME280;73873;40.084;32.908;2023-12-04T08:24:21;89898.41;;;10.77;75.95
72585;BME280;73873;40.084;32.908;2023-12-04T08:26:48;89899.44;;;10.65;75.21
72585;BME280;73873;40.084;32.908;2023-12-04T08:29:15;89903.19;;;10.59;75.62
72585;BME280;73873;40.084;32.908;2023-12-04T08:31:42;89896.50;;;10.48;76.83
72585;BME280;73873;40.084;32.908;2023-12-04T08:34:09;89894.84;;;10.66;76.58
72585;BME280;73873;40.084;32.908;2023-12-04T08:36:36;89896.41;;;10.72;77.53
72585;BME280;73873;40.084;32.908;2023-12-04T08:39:12;89892.38;;;10.62;76.55
72585;BME280;73873;40.084;32.908;2023-12-04T08:41:39;89894.09;;;10.80;77.77
72585;BME280;73873;40.084;32.908;2023-12-04T08:44:16;89905.00;;;10.97;75.38
72585;BME280;73873;40.084;32.908;2023-12-04T08:46:44;89897.56;;;10.86;74.17
72585;BME280;73873;40.084;32.908;2023-12-04T08:49:11;89889.91;;;10.94;74.98
72585;BME280;73873;40.084;32.908;2023-12-04T08:51:38;89883.63;;;11.12;75.54
72585;BME280;73873;40.084;32.908;2023-12-04T08:54:06;89883.22;;;10.98;74.27
72585;BME280;73873;40.084;32.908;2023-12-04T08:56:43;89887.19;;;11.23;75.78
72585;BME280;73873;40.084;32.908;2023-12-04T08:59:10;89878.97;;;11.27;74.85
72585;BME280;73873;40.084;32.908;2023-12-04T09:01:37;89887.22;;;11.29;74.41
72585;BME280;73873;40.084;32.908;2023-12-04T09:04:04;89876.56;;;11.29;75.45
72585;BME280;73873;40.084;32.908;2023-12-04T09:06:31;89870.75;;;11.30;74.13
72585;BME280;73873;40.084;32.908;2023-12-04T09:09:01;89872.69;;;11.09;75.75
72585;BME280;73873;40.084;32.908;2023-12-04T09:11:41;89866.75;;;11.41;74.79
72585;BME280;73873;40.084;32.908;2023-12-04T09:14:08;89869.44;;;11.61;74.21
72585;BME280;73873;40.084;32.908;2023-12-04T09:16:35;89865.31;;;11.80;73.94
72585;BME280;73873;40.084;32.908;2023-12-04T09:19:02;89860.00;;;11.86;73.48
72585;BME280;73873;40.084;32.908;2023-12-04T09:21:30;89870.34;;;12.25;71.43
72585;BME280;73873;40.084;32.908;2023-12-04T09:23:56;89867.84;;;12.15;72.45
72585;BME280;73873;40.084;32.908;2023-12-04T09:26:23;89859.56;;;11.87;72.45
72585;BME280;73873;40.084;32.908;2023-12-04T09:28:50;89864.91;;;12.13;70.02
72585;BME280;73873;40.084;32.908;2023-12-04T09:31:19;89857.25;;;12.01;69.87
72585;BME280;73873;40.084;32.908;2023-12-04T09:33:46;89860.03;;;12.12;69.38
72585;BME280;73873;40.084;32.908;2023-12-04T09:36:13;89856.19;;;12.18;69.65
72585;BME280;73873;40.084;32.908;2023-12-04T09:38:40;89858.41;;;12.20;69.65
72585;BME280;73873;40.084;32.908;2023-12-04T09:41:09;89846.56;;;12.27;69.03
72585;BME280;73873;40.084;32.908;2023-12-04T09:43:37;89847.94;;;12.48;68.59
72585;BME280;73873;40.084;32.908;2023-12-04T09:46:04;89840.59;;;12.37;67.84
72585;BME280;73873;40.084;32.908;2023-12-04T09:48:32;89838.28;;;12.56;68.23
72585;BME280;73873;40.084;32.908;2023-12-04T09:51:01;89833.13;;;12.78;67.60
72585;BME280;73873;40.084;32.908;2023-12-04T09:53:30;89830.81;;;12.60;66.90
72585;BME280;73873;40.084;32.908;2023-12-04T09:55:59;89827.34;;;12.54;67.74
72585;BME280;73873;40.084;32.908;2023-12-04T09:58:28;89829.94;;;12.43;67.93
72585;BME280;73873;40.084;32.908;2023-12-04T10:00:55;89823.59;;;12.09;69.65
72585;BME280;73873;40.084;32.908;2023-12-04T10:03:23;89817.88;;;11.70;71.38
72585;BME280;73873;40.084;32.908;2023-12-04T10:05:50;89811.03;;;11.43;72.10
72585;BME280;73873;40.084;32.908;2023-12-04T10:08:17;89820.72;;;11.20;73.27
72585;BME280;73873;40.084;32.908;2023-12-04T10:10:44;89816.19;;;11.05;73.72
72585;BME280;73873;40.084;32.908;2023-12-04T10:13:12;89813.91;;;11.19;73.69
72585;BME280;73873;40.084;32.908;2023-12-04T10:15:58;89814.91;;;11.21;73.36
72585;BME280;73873;40.084;32.908;2023-12-04T10:18:29;89809.78;;;11.18;73.46
72585;BME280;73873;40.084;32.908;2023-12-04T10:20:58;89804.06;;;11.25;73.42
72585;BME280;73873;40.084;32.908;2023-12-04T10:23:41;89807.06;;;11.32;74.23
72585;BME280;73873;40.084;32.908;2023-12-04T10:26:09;89812.06;;;11.25;73.05
72585;BME280;73873;40.084;32.908;2023-12-04T10:28:36;89801.09;;;11.23;73.06
72585;BME280;73873;40.084;32.908;2023-12-04T10:31:03;89803.09;;;11.48;73.26
72585;BME280;73873;40.084;32.908;2023-12-04T10:33:30;89805.72;;;11.43;71.95
72585;BME280;73873;40.084;32.908;2023-12-04T10:35:57;89805.56;;;11.52;72.85
72585;BME280;73873;40.084;32.908;2023-12-04T10:38:24;89807.22;;;11.49;72.76
72585;BME280;73873;40.084;32.908;2023-12-04T10:40:51;89809.09;;;11.43;72.92
72585;BME280;73873;40.084;32.908;2023-12-04T10:43:22;89807.16;;;11.44;73.00
72585;BME280;73873;40.084;32.908;2023-12-04T10:45:50;89806.22;;;11.47;73.60
72585;BME280;73873;40.084;32.908;2023-12-04T10:48:18;89812.09;;;11.77;72.88
72585;BME280;73873;40.084;32.908;2023-12-04T10:50:48;89816.22;;;11.98;71.41
72585;BME280;73873;40.084;32.908;2023-12-04T10:53:16;89814.22;;;12.19;70.86
72585;BME280;73873;40.084;32.908;2023-12-04T10:55:44;89812.44;;;11.84;71.49
72585;BME280;73873;40.084;32.908;2023-12-04T10:58:13;89804.53;;;11.49;72.81
72585;BME280;73873;40.084;32.908;2023-12-04T11:00:50;89800.50;;;11.54;73.09
72585;BME280;73873;40.084;32.908;2023-12-04T11:03:44;89800.16;;;11.46;72.97
72585;BME280;73873;40.084;32.908;2023-12-04T11:06:12;89791.84;;;11.38;74.33
72585;BME280;73873;40.084;32.908;2023-12-04T11:08:42;89787.22;;;11.39;75.20
72585;BME280;73873;40.084;32.908;2023-12-04T11:11:22;89799.34;;;11.40;75.02
72585;BME280;73873;40.084;32.908;2023-12-04T11:13:56;89782.44;;;11.23;75.97
72585;BME280;73873;40.084;32.908;2023-12-04T11:16:34;89794.53;;;11.18;77.00
72585;BME280;73873;40.084;32.908;2023-12-04T11:19:22;89791.34;;;11.40;77.11
72585;BME280;73873;40.084;32.908;2023-12-04T11:21:50;89787.94;;;11.60;75.13
72585;BME280;73873;40.084;32.908;2023-12-04T11:24:20;89788.69;;;11.60;74.93
72585;BME280;73873;40.084;32.908;2023-12-04T11:26:48;89791.38;;;11.66;74.49
72585;BME280;73873;40.084;32.908;2023-12-04T11:29:15;89797.19;;;11.64;75.02
72585;BME280;73873;40.084;32.908;2023-12-04T11:31:44;89791.50;;;11.77;74.28
72585;BME280;73873;40.084;32.908;2023-12-04T11:34:12;89785.50;;;11.82;73.76
72585;BME280;73873;40.084;32.908;2023-12-04T11:36:39;89787.84;;;12.01;73.32
72585;BME280;73873;40.084;32.908;2023-12-04T11:39:10;89792.22;;;12.04;72.94
72585;BME280;73873;40.084;32.908;2023-12-04T11:41:38;89783.78;;;12.05;72.79
72585;BME280;73873;40.084;32.908;2023-12-04T11:44:13;89780.53;;;11.96;72.67
72585;BME280;73873;40.084;32.908;2023-12-04T11:46:55;89781.94;;;11.91;73.20
72585;BME280;73873;40.084;32.908;2023-12-04T11:49:30;89780.97;;;11.88;73.19
72585;BME280;73873;40.084;32.908;2023-12-04T11:51:58;89797.28;;;11.96;73.19
72585;BME280;73873;40.084;32.908;2023-12-04T11:54:27;89796.22;;;12.14;72.15
72585;BME280;73873;40.084;32.908;2023-12-04T11:59:38;89796.00;;;12.17;71.84
72585;BME280;73873;40.084;32.908;2023-12-04T12:02:08;89802.72;;;12.07;72.13
72585;BME280;73873;40.084;32.908;2023-12-04T12:04:37;89814.75;;;11.97;72.67
72585;BME280;73873;40.084;32.908;2023-12-04T12:07:05;89816.41;;;11.94;72.79
72585;BME280;73873;40.084;32.908;2023-12-04T12:09:33;89814.28;;;11.99;73.08
72585;BME280;73873;40.084;32.908;2023-12-04T12:12:02;89816.22;;;11.98;72.62
72585;BME280;73873;40.084;32.908;2023-12-04T12:14:30;89824.00;;;12.02;73.30
72585;BME280;73873;40.084;32.908;2023-12-04T12:17:00;89820.63;;;12.01;73.13
72585;BME280;73873;40.084;32.908;2023-12-04T12:19:28;89825.03;;;12.04;72.92
72585;BME280;73873;40.084;32.908;2023-12-04T12:21:55;89821.56;;;11.98;73.29
72585;BME280;73873;40.084;32.908;2023-12-04T12:24:24;89834.03;;;12.07;72.92
72585;BME280;73873;40.084;32.908;2023-12-04T12:26:51;89831.34;;;11.60;74.13
72585;BME280;73873;40.084;32.908;2023-12-04T12:29:17;89824.78;;;11.35;nan
72585;BME280;73873;40.084;32.908;2023-12-04T12:31:44;89823.19;;;11.23;77.13
72585;BME280;73873;40.084;32.908;2023-12-04T12:34:11;89824.38;;;11.22;76.97
72585;BME280;73873;40.084;32.908;2023-12-04T12:36:38;89817.78;;;11.18;77.38
72585;BME280;73873;40.084;32.908;2023-12-04T12:39:05;89824.50;;;11.13;77.30
72585;BME280;73873;40.084;32.908;2023-12-04T12:41:32;89822.78;;;11.10;78.15
72585;BME280;73873;40.084;32.908;2023-12-04T12:44:00;89813.66;;;11.17;78.13
72585;BME280;73873;40.084;32.908;2023-12-04T12:46:27;89808.97;;;11.12;77.38
72585;BME280;73873;40.084;32.908;2023-12-04T12:48:54;89817.69;;;11.12;78.58
72585;BME280;73873;40.084;32.908;2023-12-04T12:51:23;89815.72;;;11.07;78.21
72585;BME280;73873;40.084;32.908;2023-12-04T12:53:50;89826.31;;;11.01;78.43
72585;BME280;73873;40.084;32.908;2023-12-04T12:56:18;89825.31;;;10.99;78.51
72585;BME280;73873;40.084;32.908;2023-12-04T12:58:45;89827.50;;;11.00;79.36
72585;BME280;73873;40.084;32.908;2023-12-04T13:01:12;89836.97;;;11.01;79.15